Time;durP1;ratioP1;P1;durP2;ratioP2;P2;SDS_P1;SDS_P2;PMS_P1;PMS_P2;Temp;Humidity;BMP_temperature;BMP_pressure;BME280_temperature;BME280_humidity;BME280_pressure;Samples;Min_cycle;Max_cycle;Signal;HPM_P1;HPM_P2
2022/10/07 00:01:54;;;;;;;6.87;1.93;;;;;;;11.36;95.15;100792.72;4975633;28;20174;-70
2022/10/07 00:04:20;;;;;;;6.33;2.23;;;;;;;11.36;95.08;100798.88;4975290;28;20026;-74
2022/10/07 00:06:46;;;;;;;14.00;3.27;;;;;;;11.35;95.15;100796.38;4975411;28;20030;-70
2022/10/07 00:09:12;;;;;;;11.20;2.67;;;;;;;11.37;95.74;100805.88;4975472;28;20027;-70
2022/10/07 00:11:38;;;;;;;10.77;2.50;;;;;;;11.33;95.58;100799.22;4957840;28;20030;-71
2022/10/07 00:14:07;;;;;;;10.00;3.03;;;;;;;11.36;95.24;100796.22;4974974;28;20378;-73
2022/10/07 00:16:36;;;;;;;7.73;2.43;;;;;;;11.36;95.74;100796.22;4975420;28;20038;-70
2022/10/07 00:19:06;;;;;;;8.63;2.13;;;;;;;11.36;95.29;100804.22;4974370;28;20053;-70
2022/10/07 00:21:34;;;;;;;8.47;2.30;;;;;;;11.36;95.11;100798.88;4975072;28;20031;-70
2022/10/07 00:24:00;;;;;;;7.65;2.63;;;;;;;11.39;95.26;100803.88;4975102;28;20030;-72
2022/10/07 00:26:28;;;;;;;7.40;2.57;;;;;;;11.38;94.93;100810.22;4975033;28;20097;-74
2022/10/07 00:28:54;;;;;;;7.57;2.25;;;;;;;11.40;94.65;100805.56;4975161;28;20026;-70
2022/10/07 00:31:23;;;;;;;11.57;3.00;;;;;;;11.39;95.42;100793.22;4975333;28;20062;-71
2022/10/07 00:33:50;;;;;;;6.83;2.83;;;;;;;11.34;95.09;100803.56;4974892;28;20695;-72
2022/10/07 00:36:19;;;;;;;10.23;2.30;;;;;;;11.35;95.60;100815.88;4974944;28;20090;-70
2022/10/07 00:38:50;;;;;;;15.30;2.83;;;;;;;11.25;95.28;100793.88;4957503;28;20443;-71
2022/10/07 00:41:19;;;;;;;8.90;2.57;;;;;;;11.29;95.62;100813.06;4974548;28;20031;-72
2022/10/07 00:43:45;;;;;;;10.83;3.20;;;;;;;11.29;95.83;100805.88;4974792;28;20101;-72
2022/10/07 00:46:20;;;;;;;9.87;2.20;;;;;;;11.33;95.59;100817.88;4974755;28;20030;-72
2022/10/07 00:48:46;;;;;;;19.20;2.77;;;;;;;11.30;95.55;100825.38;4974934;28;20035;-71
2022/10/07 00:51:15;;;;;;;8.33;2.40;;;;;;;11.32;95.43;100818.88;4976085;28;20026;-70
2022/10/07 00:53:45;;;;;;;15.37;3.53;;;;;;;11.30;95.08;100826.22;4974860;28;20105;-70
2022/10/07 00:56:12;;;;;;;11.33;2.40;;;;;;;11.33;95.27;100815.22;4974568;28;20054;-71
2022/10/07 00:58:41;;;;;;;8.23;2.63;;;;;;;11.35;94.77;100829.22;4974691;28;20125;-71
2022/10/07 01:01:07;;;;;;;5.30;2.40;;;;;;;11.37;95.29;100835.22;4974376;28;20261;-73
2022/10/07 01:03:34;;;;;;;6.83;2.90;;;;;;;11.38;95.04;100838.72;4974094;28;20023;-72
2022/10/07 01:06:02;;;;;;;6.87;2.60;;;;;;;11.33;95.11;100825.88;4974191;28;20086;-69
2022/10/07 01:08:28;;;;;;;12.50;2.65;;;;;;;11.35;95.17;100834.56;4974096;28;20411;-72
2022/10/07 01:11:24;;;;;;;6.53;2.63;;;;;;;11.33;95.33;100836.56;4974377;28;20041;-72
2022/10/07 01:14:08;;;;;;;9.87;2.87;;;;;;;11.34;95.53;100838.22;4975056;28;20034;-73
2022/10/07 01:17:02;;;;;;;13.43;3.07;;;;;;;11.29;95.72;100824.56;4956626;28;20038;-71
2022/10/07 01:20:01;;;;;;;8.87;2.33;;;;;;;11.34;95.71;100840.88;4960071;28;20483;-71
2022/10/07 01:22:33;;;;;;;8.77;2.53;;;;;;;11.31;95.66;100835.88;4956910;28;20553;-71
2022/10/07 01:25:17;;;;;;;9.00;3.20;;;;;;;11.29;95.81;100840.56;4978034;28;20027;-72
2022/10/07 01:27:48;;;;;;;9.13;3.67;;;;;;;11.32;95.58;100840.22;4979974;28;20037;-72
2022/10/07 01:30:14;;;;;;;15.53;3.30;;;;;;;11.33;95.41;100830.38;4977777;28;20031;-71
2022/10/07 01:32:52;;;;;;;8.10;2.83;;;;;;;11.36;95.19;100841.56;4973954;28;20458;-71
2022/10/07 01:35:23;;;;;;;8.30;2.17;;;;;;;11.38;95.24;100849.38;4973837;28;20085;-72
2022/10/07 01:37:54;;;;;;;10.67;2.83;;;;;;;11.35;95.31;100845.22;4974214;28;20073;-71
2022/10/07 01:40:27;;;;;;;9.23;3.20;;;;;;;11.36;95.08;100852.22;4956831;28;20543;-73
2022/10/07 01:42:54;;;;;;;14.07;4.03;;;;;;;11.35;95.47;100845.22;4973883;28;20035;-72
2022/10/07 01:45:23;;;;;;;10.97;3.47;;;;;;;11.36;95.30;100852.22;4973736;28;20122;-72
2022/10/07 01:47:49;;;;;;;13.93;2.58;;;;;;;11.34;95.40;100854.22;4973517;28;20077;-73
2022/10/07 01:50:17;;;;;;;11.47;3.13;;;;;;;11.36;95.69;100857.53;4973904;28;20031;-70
2022/10/07 01:53:21;;;;;;;9.55;3.22;;;;;;;11.40;94.85;100868.72;4956778;28;20030;-72
2022/10/07 01:56:06;;;;;;;11.67;3.67;;;;;;;11.37;95.65;100853.06;4969667;28;20077;-71
2022/10/07 01:59:04;;;;;;;12.90;2.87;;;;;;;11.35;95.39;100866.56;4973653;28;20042;-74
2022/10/07 02:01:47;;;;;;;8.55;2.50;;;;;;;11.35;95.71;100877.22;4973792;28;20027;-71
2022/10/07 02:04:16;;;;;;;16.80;3.10;;;;;;;11.32;95.72;100872.22;4973611;28;20462;-71
2022/10/07 02:06:47;;;;;;;10.85;2.88;;;;;;;11.35;95.70;100876.38;4973409;28;20494;-72
2022/10/07 02:09:35;;;;;;;13.13;2.70;;;;;;;11.41;95.34;100871.22;4973692;28;20078;-72
2022/10/07 02:12:12;;;;;;;9.68;2.72;;;;;;;11.35;95.22;100858.56;4973446;28;20119;-71
2022/10/07 02:14:44;;;;;;;12.10;3.37;;;;;;;11.37;95.11;100869.06;4955802;28;20082;-72
2022/10/07 02:17:18;;;;;;;14.77;3.33;;;;;;;11.37;95.41;100869.88;4973414;28;20049;-72
2022/10/07 02:19:52;;;;;;;11.50;3.00;;;;;;;11.40;95.27;100866.88;4973629;28;20054;-75
2022/10/07 02:22:20;;;;;;;11.17;3.33;;;;;;;11.38;95.23;100855.53;4973263;28;20042;-71
2022/10/07 02:24:49;;;;;;;11.20;2.90;;;;;;;11.37;94.67;100853.88;4973385;28;20438;-70
2022/10/07 02:27:19;;;;;;;12.27;3.40;;;;;;;11.38;94.89;100865.38;4973190;28;20089;-70
2022/10/07 02:29:47;;;;;;;7.60;3.43;;;;;;;11.34;95.24;100848.88;4974032;28;20027;-71
2022/10/07 02:32:18;;;;;;;12.83;3.53;;;;;;;11.31;95.02;100848.38;4973777;28;20027;-73
2022/10/07 02:34:47;;;;;;;10.60;2.60;;;;;;;11.37;94.71;100864.56;4977699;28;20598;-70
2022/10/07 02:37:24;;;;;;;11.43;2.83;;;;;;;11.15;93.90;100820.69;4960665;28;20438;-69
2022/10/07 02:40:15;;;;;;;10.00;3.37;;;;;;;11.42;93.90;100862.22;4979909;28;20046;-70
2022/10/07 02:42:51;;;;;;;10.90;3.70;;;;;;;11.42;93.80;100864.03;4979858;28;20035;-72
2022/10/07 02:45:43;;;;;;;8.83;2.50;;;;;;;11.44;93.25;100849.53;4984103;28;20058;-70
2022/10/07 02:48:22;;;;;;;15.33;4.30;;;;;;;11.45;93.87;100853.03;4980152;28;20026;-71
2022/10/07 02:50:50;;;;;;;;;;;;;;;11.48;93.92;100858.03;4985132;28;20031;-71
2022/10/07 02:53:18;;;;;;;13.05;3.33;;;;;;;11.47;93.90;100861.72;4981812;28;19937;-70
2022/10/07 02:55:45;;;;;;;7.55;2.78;;;;;;;11.45;93.87;100856.53;4976917;28;20065;-74
2022/10/07 02:58:11;;;;;;;11.13;2.70;;;;;;;11.40;93.87;100852.72;4976764;28;20034;-72
2022/10/07 03:00:41;;;;;;;9.53;3.63;;;;;;;11.39;94.17;100846.56;4976610;28;20690;-70
2022/10/07 03:03:07;;;;;;;13.07;2.80;;;;;;;11.40;93.61;100852.72;4976362;28;20590;-72
2022/10/07 03:05:34;;;;;;;6.73;2.67;;;;;;;11.40;93.81;100858.88;4970638;28;20073;-71
2022/10/07 03:08:08;;;;;;;8.97;2.83;;;;;;;11.45;94.32;100861.88;4967450;28;20042;-73
2022/10/07 03:10:33;;;;;;;9.17;2.80;;;;;;;11.42;95.36;100878.22;4940281;29;20042;-71
2022/10/07 03:12:59;;;;;;;8.00;2.80;;;;;;;11.10;96.83;100825.69;4957176;29;20027;-71
2022/10/07 03:15:25;;;;;;;14.97;5.27;;;;;;;11.22;98.46;100882.19;4957041;29;20027;-70
2022/10/07 03:17:51;;;;;;;8.80;3.10;;;;;;;11.10;99.89;100873.66;4973422;28;20641;-71
2022/10/07 03:20:17;;;;;;;16.40;2.67;;;;;;;10.96;100.00;100870.78;4976938;28;20093;-70
2022/10/07 03:22:43;;;;;;;9.00;2.83;;;;;;;10.70;100.00;100845.09;4976515;28;20034;-70
2022/10/07 03:25:10;;;;;;;10.87;3.37;;;;;;;10.74;100.00;100867.75;4976516;28;20030;-71
2022/10/07 03:27:37;;;;;;;11.37;4.13;;;;;;;10.67;100.00;100872.00;4976444;28;20030;-72
2022/10/07 03:30:03;;;;;;;11.37;3.10;;;;;;;10.59;100.00;100869.31;4977682;28;20022;-71
2022/10/07 03:32:29;;;;;;;10.20;2.70;;;;;;;10.56;100.00;100885.63;4982366;28;20034;-71
2022/10/07 03:34:54;;;;;;;11.70;3.43;;;;;;;10.54;100.00;100876.97;4982599;28;20026;-70
2022/10/07 03:37:21;;;;;;;11.63;3.47;;;;;;;10.54;100.00;100876.97;4983825;28;20038;-70
2022/10/07 03:39:47;;;;;;;9.20;3.10;;;;;;;10.55;100.00;100881.28;4984766;28;20054;-72
2022/10/07 03:42:13;;;;;;;12.17;3.53;;;;;;;10.47;100.00;100870.63;4984996;28;20569;-70
2022/10/07 03:44:38;;;;;;;8.73;3.20;;;;;;;10.48;100.00;100877.59;4984506;28;20109;-71
2022/10/07 03:47:04;;;;;;;12.67;3.00;;;;;;;10.42;100.00;100878.25;4982852;28;20033;-69
2022/10/07 03:49:30;;;;;;;11.67;2.53;;;;;;;10.44;100.00;100887.75;4979469;28;20027;-70
2022/10/07 03:51:55;;;;;;;16.10;3.17;;;;;;;10.44;100.00;100881.59;4977473;28;20031;-70
2022/10/07 03:54:21;;;;;;;15.60;3.57;;;;;;;10.28;100.00;100849.53;4977171;28;20118;-70
2022/10/07 03:56:47;;;;;;;8.73;2.57;;;;;;;10.47;100.00;100874.13;4976494;28;20035;-71
2022/10/07 03:59:12;;;;;;;9.37;2.97;;;;;;;10.51;100.00;100871.97;4975351;28;20487;-72
2022/10/07 04:01:38;;;;;;;8.50;2.67;;;;;;;10.52;100.00;100876.28;4975569;28;20123;-73
2022/10/07 04:04:06;;;;;;;8.93;3.27;;;;;;;10.53;100.00;100885.94;4975546;28;20031;-71
2022/10/07 04:06:32;;;;;;;11.43;3.20;;;;;;;10.53;100.00;100896.59;4975752;28;20532;-72
2022/10/07 04:08:58;;;;;;;12.47;3.70;;;;;;;10.42;100.00;100876.41;4975635;28;20049;-70
2022/10/07 04:11:24;;;;;;;12.70;3.03;;;;;;;10.44;100.00;100886.91;4974950;28;20027;-71
2022/10/07 04:13:51;;;;;;;19.07;4.67;;;;;;;10.37;100.00;100880.53;4975233;28;20070;-72
2022/10/07 04:16:17;;;;;;;15.73;3.10;;;;;;;10.34;100.00;100883.50;4975115;28;20121;-71
2022/10/07 04:18:44;;;;;;;16.33;3.43;;;;;;;10.24;100.00;100876.47;4974926;28;20529;-71
2022/10/07 04:21:13;;;;;;;8.23;3.17;;;;;;;10.16;100.00;100873.75;4975114;28;20051;-72
2022/10/07 04:23:41;;;;;;;12.40;2.67;;;;;;;10.17;100.00;100880.75;4974982;28;20478;-73
2022/10/07 04:26:08;;;;;;;11.43;3.10;;;;;;;10.20;100.00;100895.56;4957467;28;20019;-75
2022/10/07 04:28:34;;;;;;;13.43;3.67;;;;;;;10.22;100.00;100905.09;4975032;28;20368;-73
2022/10/07 04:31:03;;;;;;;11.07;3.37;;;;;;;10.20;100.00;100885.78;4975330;28;20050;-73
2022/10/07 04:33:28;;;;;;;13.77;3.33;;;;;;;10.21;100.00;100891.94;4974857;28;20061;-71
2022/10/07 04:35:54;;;;;;;13.30;3.60;;;;;;;10.22;100.00;100897.09;4974864;28;20023;-72
2022/10/07 04:38:20;;;;;;;8.17;3.27;;;;;;;10.19;100.00;100885.91;4974645;28;20033;-72
2022/10/07 04:40:48;;;;;;;10.13;2.97;;;;;;;10.22;100.00;100897.09;4974678;28;20069;-73
2022/10/07 04:43:19;;;;;;;20.63;3.90;;;;;;;10.27;100.00;100898.44;4974580;28;20039;-71
2022/10/07 04:45:46;;;;;;;10.60;3.67;;;;;;;10.16;100.00;100887.06;4974215;28;20034;-71
2022/10/07 04:48:12;;;;;;;14.90;3.07;;;;;;;10.24;100.00;100881.81;4974576;28;20161;-71
2022/10/07 04:50:37;;;;;;;10.40;3.00;;;;;;;10.26;100.00;100883.47;4974473;28;20504;-71
2022/10/07 04:53:04;;;;;;;12.00;2.77;;;;;;;10.35;100.00;100893.16;4977487;28;20042;-70
2022/10/07 04:55:38;;;;;;;11.77;2.47;;;;;;;10.40;100.00;100891.69;4981106;28;20386;-70
2022/10/07 04:58:05;;;;;;;11.13;4.23;;;;;;;10.46;100.00;100906.22;4983661;28;20038;-70
2022/10/07 05:00:30;;;;;;;12.53;2.83;;;;;;;10.41;100.00;100890.72;4976684;28;20482;-71
2022/10/07 05:02:56;;;;;;;8.30;2.80;;;;;;;10.49;100.00;100913.91;4974333;28;20110;-71
2022/10/07 05:05:22;;;;;;;8.23;3.13;;;;;;;10.44;100.00;100894.91;4973656;28;20110;-71
2022/10/07 05:07:51;;;;;;;9.80;2.83;;;;;;;10.45;100.00;100915.22;4974495;28;20022;-73
2022/10/07 05:10:17;;;;;;;12.13;3.27;;;;;;;10.45;100.00;100928.53;4974827;28;20119;-69
2022/10/07 05:12:43;;;;;;;9.90;3.23;;;;;;;10.34;100.00;100902.97;4974003;28;20054;-69
2022/10/07 05:15:09;;;;;;;8.77;3.97;;;;;;;10.45;100.00;100933.84;4974059;28;20160;-74
2022/10/07 05:17:35;;;;;;;17.60;4.87;;;;;;;10.40;100.00;100922.81;4973990;28;20467;-72
2022/10/07 05:20:03;;;;;;;11.40;3.23;;;;;;;10.39;100.00;100921.13;4974102;28;20074;-69
2022/10/07 05:22:30;;;;;;;;;;;;;;;10.42;100.00;100934.16;4974572;28;20482;-74
2022/10/07 05:24:55;;;;;;;12.00;2.87;;;;;;;10.41;100.00;100945.81;4973627;28;19910;-73
2022/10/07 05:27:21;;;;;;;9.10;3.73;;;;;;;10.40;100.00;100944.94;4971510;28;20085;-72
2022/10/07 05:29:47;;;;;;;12.30;2.70;;;;;;;10.45;100.00;100957.81;4973576;28;20038;-70
2022/10/07 05:32:12;;;;;;;10.40;2.53;;;;;;;10.45;100.00;100957.81;4956024;28;20030;-70
2022/10/07 05:34:38;;;;;;;11.27;2.83;;;;;;;10.45;100.00;100945.34;4966353;28;20305;-73
2022/10/07 05:37:03;;;;;;;9.20;3.60;;;;;;;10.44;100.00;100950.81;4958940;28;20046;-71
2022/10/07 05:39:29;;;;;;;21.70;3.27;;;;;;;10.49;100.00;100959.16;4964279;28;20436;-73
2022/10/07 05:41:54;;;;;;;12.00;3.03;;;;;;;10.52;100.00;100964.16;4961938;28;20035;-71
2022/10/07 05:44:23;;;;;;;12.48;3.72;;;;;;;10.54;100.00;100964.84;4962338;28;20039;-70
2022/10/07 05:46:49;;;;;;;9.10;3.00;;;;;;;10.63;100.00;100965.72;4961843;28;20042;-71
2022/10/07 05:49:15;;;;;;;12.53;2.97;;;;;;;10.59;100.00;100970.53;4961308;28;20019;-76
2022/10/07 05:51:40;;;;;;;9.67;2.80;;;;;;;10.69;100.00;100989.06;4964038;28;20629;-72
2022/10/07 05:54:07;;;;;;;10.90;3.63;;;;;;;10.73;100.00;100985.09;4961450;28;20601;-74
2022/10/07 05:56:35;;;;;;;11.27;3.00;;;;;;;10.76;100.00;100992.78;4954036;29;20471;-70
2022/10/07 05:59:01;;;;;;;15.63;3.83;;;;;;;10.81;100.00;101007.28;4971106;28;20113;-73
2022/10/07 06:01:27;;;;;;;11.43;3.20;;;;;;;10.83;100.00;101002.63;4960205;28;20118;-72
2022/10/07 06:03:55;;;;;;;12.63;3.43;;;;;;;10.81;100.00;101001.97;4961870;28;20448;-70
2022/10/07 06:06:21;;;;;;;9.52;3.58;;;;;;;10.83;100.00;101001.81;4961118;28;20391;-71
2022/10/07 06:08:46;;;;;;;12.63;3.83;;;;;;;10.82;100.00;100992.97;4965771;28;20023;-75
2022/10/07 06:13:59;;;;;;;7.67;4.23;;;;;;;10.83;100.00;101004.47;4953893;29;20023;-79
2022/10/07 06:16:25;;;;;;;9.83;3.00;;;;;;;10.80;100.00;101016.28;4954091;29;20027;-80
2022/10/07 06:18:53;;;;;;;13.23;3.27;;;;;;;10.74;100.00;101010.75;4956841;28;20467;-79
2022/10/07 06:21:20;;;;;;;;;;;;;;;10.80;100.00;101021.59;4960407;28;20027;-72
2022/10/07 06:23:53;;;;;;;11.23;4.43;;;;;;;10.75;100.00;101021.25;4966037;28;19910;-74
2022/10/07 06:26:19;;;;;;;20.97;4.07;;;;;;;10.76;100.00;101017.59;4967835;28;20082;-77
2022/10/07 06:28:45;;;;;;;9.20;3.80;;;;;;;10.85;100.00;101024.63;4963565;28;20126;-75
2022/10/07 06:31:13;;;;;;;12.73;3.10;;;;;;;10.89;100.00;101037.63;4968232;28;20054;-74
2022/10/07 06:33:39;;;;;;;17.27;3.90;;;;;;;10.86;100.00;101042.28;4965339;28;20047;-76
2022/10/07 06:36:08;;;;;;;14.07;3.73;;;;;;;10.81;100.00;101044.59;4930411;28;20035;-77
2022/10/07 06:38:34;;;;;;;14.00;3.53;;;;;;;10.79;100.00;101040.41;4971376;28;20030;-77
2022/10/07 06:41:12;;;;;;;13.17;3.17;;;;;;;10.85;100.00;101045.09;4957593;28;20030;-77
2022/10/07 06:43:37;;;;;;;11.82;4.32;;;;;;;10.94;100.00;101048.66;4980450;28;20043;-73
2022/10/07 06:46:08;;;;;;;10.50;3.20;;;;;;;10.96;100.00;101052.00;4984214;28;20058;-75
2022/10/07 06:48:34;;;;;;;11.60;4.67;;;;;;;11.05;100.00;101061.72;4979524;28;20022;-75
2022/10/07 06:51:04;;;;;;;12.70;3.23;;;;;;;11.01;100.00;101049.72;4960393;28;20769;-73
2022/10/07 06:53:31;;;;;;;15.17;4.57;;;;;;;11.14;100.00;101052.75;4967477;28;20057;-74
2022/10/07 06:56:00;;;;;;;15.70;4.07;;;;;;;11.32;100.00;101058.84;4966150;28;20082;-73
2022/10/07 06:58:26;;;;;;;15.40;3.60;;;;;;;11.37;100.00;101053.88;4967690;28;20026;-71
2022/10/07 07:00:53;;;;;;;13.43;3.87;;;;;;;11.43;100.00;101045.22;4964548;28;20117;-71
2022/10/07 07:03:19;;;;;;;11.20;3.57;;;;;;;11.46;100.00;101055.56;4969660;28;20035;-71
2022/10/07 07:05:45;;;;;;;13.23;3.43;;;;;;;11.52;100.00;101069.25;4966914;28;20030;-74
2022/10/07 07:08:11;;;;;;;11.53;3.00;;;;;;;11.50;99.87;101069.41;4962451;28;20109;-74
2022/10/07 07:10:39;;;;;;;12.60;3.97;;;;;;;11.52;99.78;101079.91;4968878;28;20027;-72
2022/10/07 07:13:06;;;;;;;17.50;3.57;;;;;;;11.54;99.23;101088.59;4966590;28;20226;-72
2022/10/07 07:15:31;;;;;;;9.77;3.07;;;;;;;11.66;98.86;101069.47;4965227;28;20058;-73
2022/10/07 07:18:42;;;;;;;13.77;3.87;;;;;;;11.75;98.60;101092.50;4944322;28;20050;-72
2022/10/07 07:21:10;;;;;;;13.77;3.70;;;;;;;11.91;98.23;101090.94;4956067;29;20125;-74
2022/10/07 07:23:35;;;;;;;13.32;4.35;;;;;;;11.95;97.58;101093.09;4955913;29;20363;-74
2022/10/07 07:29:41;;;;;;;9.70;3.37;;;;;;;11.71;97.94;101093.00;4953861;28;20082;-75
2022/10/07 07:32:07;;;;;;;13.13;3.10;;;;;;;11.53;98.76;101093.09;4956252;29;20031;-73
2022/10/07 07:34:35;;;;;;;15.77;3.53;;;;;;;11.51;99.49;101104.91;4955823;29;20113;-73
2022/10/07 07:37:00;;;;;;;12.07;3.20;;;;;;;11.34;99.51;101066.69;4940362;28;20037;-75
2022/10/07 07:39:26;;;;;;;10.93;3.20;;;;;;;11.48;99.64;101096.25;4955973;29;20039;-72
2022/10/07 07:41:51;;;;;;;14.30;4.30;;;;;;;11.59;99.36;101107.66;4955808;29;20027;-72
2022/10/07 07:44:18;;;;;;;9.40;3.67;;;;;;;11.66;97.97;101103.31;4955698;29;20054;-75
2022/10/07 07:46:50;;;;;;;14.43;4.10;;;;;;;11.66;97.84;101098.00;4938177;29;20035;-75
2022/10/07 07:49:16;;;;;;;12.77;3.97;;;;;;;12.00;96.94;101122.81;4956036;29;20059;-73
2022/10/07 07:51:42;;;;;;;12.70;3.33;;;;;;;12.23;95.01;101119.53;4956421;29;20114;-76
2022/10/07 07:54:09;;;;;;;11.43;3.90;;;;;;;12.29;94.00;101117.03;4956982;29;20360;-73
2022/10/07 07:56:35;;;;;;;9.07;3.47;;;;;;;12.05;94.66;101087.63;4960219;28;20033;-75
2022/10/07 07:59:02;;;;;;;9.50;3.20;;;;;;;12.09;94.59;101116.47;4962372;28;20454;-75
2022/10/07 08:01:32;;;;;;;15.93;4.23;;;;;;;12.10;94.07;101126.16;4969052;28;20157;-73
2022/10/07 08:03:59;;;;;;;16.27;4.30;;;;;;;12.04;94.04;101123.31;4963383;29;20031;-76
2022/10/07 08:06:26;;;;;;;12.60;3.37;;;;;;;12.01;93.33;101118.31;4961982;29;20077;-73
2022/10/07 08:08:56;;;;;;;12.23;4.03;;;;;;;12.04;93.44;101118.81;4939796;29;20481;-74
2022/10/07 08:11:25;;;;;;;12.80;4.07;;;;;;;12.09;92.61;101131.66;4956280;29;20038;-75
2022/10/07 08:13:50;;;;;;;12.13;3.33;;;;;;;12.00;92.86;101133.50;4922873;29;20070;-72
2022/10/07 08:16:18;;;;;;;13.10;4.07;;;;;;;11.93;93.56;101156.50;4956187;29;20027;-73
2022/10/07 08:19:11;;;;;;;20.63;5.57;;;;;;;11.89;94.04;101149.81;4956622;28;20057;-72
2022/10/07 08:21:37;;;;;;;13.50;3.50;;;;;;;11.77;93.84;101146.56;4975301;28;20090;-71
2022/10/07 08:24:05;;;;;;;20.43;3.90;;;;;;;11.71;94.21;101165.03;4975213;28;20023;-73
2022/10/07 08:26:41;;;;;;;13.25;3.58;;;;;;;11.65;94.00;101152.34;4957890;28;20089;-72
2022/10/07 08:29:07;;;;;;;11.53;4.57;;;;;;;11.72;94.61;101164.88;4977090;28;20034;-71
2022/10/07 08:31:32;;;;;;;19.37;4.33;;;;;;;11.81;94.43;101165.78;4984976;28;20033;-72
2022/10/07 08:34:00;;;;;;;14.23;4.43;;;;;;;11.74;94.01;101132.69;4967211;28;20037;-70
2022/10/07 08:36:27;;;;;;;11.97;3.97;;;;;;;12.16;92.68;101170.09;4983606;28;20035;-69
2022/10/07 08:38:53;;;;;;;12.87;4.13;;;;;;;12.35;92.32;101182.28;4981671;28;20455;-71
2022/10/07 08:41:25;;;;;;;13.17;4.83;;;;;;;12.43;92.59;101181.47;4975059;28;20069;-75
2022/10/07 08:43:50;;;;;;;16.60;5.10;;;;;;;12.47;91.39;101188.19;4975333;28;20026;-74
2022/10/07 08:46:28;;;;;;;13.37;4.83;;;;;;;12.70;90.72;101190.03;4974446;28;20489;-75
2022/10/07 08:49:04;;;;;;;16.27;4.13;;;;;;;12.98;89.72;101197.72;4957841;28;20035;-76
2022/10/07 08:51:39;;;;;;;20.40;4.77;;;;;;;13.13;88.26;101198.72;4974478;28;20352;-73
2022/10/07 08:54:07;;;;;;;19.80;6.07;;;;;;;13.21;86.78;101193.38;4974210;28;20057;-75
2022/10/07 08:56:33;;;;;;;14.65;4.45;;;;;;;13.29;87.01;101182.66;4974325;28;20037;-76
2022/10/07 08:59:14;;;;;;;17.13;4.87;;;;;;;13.28;87.85;101172.97;4974248;28;20034;-74
2022/10/07 09:02:17;;;;;;;14.23;4.07;;;;;;;13.13;87.47;101209.41;4974392;28;20078;-74
2022/10/07 09:05:07;;;;;;;19.07;5.33;;;;;;;12.98;88.29;101206.56;4974335;28;20122;-74
2022/10/07 09:07:46;;;;;;;14.83;3.80;;;;;;;12.80;88.81;101194.41;4974316;28;20031;-74
2022/10/07 09:10:39;;;;;;;13.97;4.10;;;;;;;12.83;89.24;101218.09;4956971;28;20114;-74
2022/10/07 09:13:09;;;;;;;20.60;4.60;;;;;;;12.85;88.66;101211.59;4954756;29;20085;-74
2022/10/07 09:15:59;;;;;;;16.10;3.80;;;;;;;12.91;88.92;101210.91;4956749;29;20419;-73
2022/10/07 09:18:38;;;;;;;15.17;4.80;;;;;;;12.95;88.40;101222.94;4955592;29;20035;-76
2022/10/07 09:21:17;;;;;;;17.57;4.07;;;;;;;12.70;88.51;101200.72;4966423;28;20116;-73
2022/10/07 09:23:45;;;;;;;17.23;3.70;;;;;;;12.90;88.58;101232.47;4973942;28;20050;-75
2022/10/07 09:26:16;;;;;;;18.93;4.83;;;;;;;12.94;87.95;101217.78;4973525;28;20034;-75
2022/10/07 09:28:48;;;;;;;16.10;4.63;;;;;;;13.03;87.70;101219.47;4941014;28;20085;-73
2022/10/07 09:31:22;;;;;;;30.95;10.07;;;;;;;13.04;88.14;101226.47;4937541;29;20063;-73
2022/10/07 09:33:51;;;;;;;78.57;39.73;;;;;;;12.99;88.45;101226.97;4954337;29;20039;-74
2022/10/07 09:36:17;;;;;;;74.73;33.30;;;;;;;13.03;88.77;101228.31;4953567;29;20491;-73
2022/10/07 09:38:51;;;;;;;22.03;6.73;;;;;;;12.96;88.31;101221.09;4954328;29;20095;-70
2022/10/07 09:41:31;;;;;;;16.67;5.17;;;;;;;13.02;88.09;101228.50;4954700;29;20074;-75
2022/10/07 09:44:14;;;;;;;28.10;7.40;;;;;;;13.16;88.26;101219.78;4937092;29;20062;-74
2022/10/07 09:46:50;;;;;;;13.27;5.43;;;;;;;13.13;87.40;101221.97;4953907;29;20047;-72
2022/10/07 09:49:27;;;;;;;16.70;5.25;;;;;;;13.06;87.07;101229.00;4921035;29;20042;-71
2022/10/07 09:52:01;;;;;;;31.70;13.43;;;;;;;13.11;87.44;101230.16;4954123;28;20027;-69
2022/10/07 09:54:28;;;;;;;23.73;7.43;;;;;;;13.27;86.58;101240.84;4936821;29;20027;-71
2022/10/07 09:56:58;;;;;;;16.57;4.90;;;;;;;13.20;86.02;101207.78;4954841;29;20031;-70
2022/10/07 09:59:24;;;;;;;376.60;215.17;;;;;;;13.49;88.16;101233.97;4938336;29;20126;-71
2022/10/07 10:01:55;;;;;;;54.50;24.67;;;;;;;13.68;85.70;101235.44;4953849;29;20038;-70
2022/10/07 10:04:34;;;;;;;115.57;50.23;;;;;;;13.64;85.21;101236.81;4936839;29;20089;-72
2022/10/07 10:07:35;;;;;;;108.70;62.10;;;;;;;13.33;85.61;101242.88;4953885;29;20027;-70
2022/10/07 10:10:11;;;;;;;59.57;19.20;;;;;;;12.98;86.22;101230.63;4953872;29;20030;-69
2022/10/07 10:12:45;;;;;;;36.07;16.30;;;;;;;12.76;87.35;101222.47;4953768;29;20079;-68
2022/10/07 10:15:34;;;;;;;130.30;57.73;;;;;;;12.86;89.00;101231.97;4936615;29;20035;-71
2022/10/07 10:18:00;;;;;;;239.67;92.90;;;;;;;12.91;87.45;101239.50;4944305;29;20054;-71
2022/10/07 10:20:38;;;;;;;30.87;9.27;;;;;;;12.87;87.69;101243.50;4963074;28;20047;-71
2022/10/07 10:23:30;;;;;;;20.88;5.32;;;;;;;12.91;87.57;101256.38;4973002;28;20390;-71
2022/10/07 10:26:26;;;;;;;51.93;26.30;;;;;;;13.02;87.19;101244.53;4973129;28;20458;-71
2022/10/07 10:29:10;;;;;;;613.27;227.97;;;;;;;13.16;86.98;101237.66;4955481;28;20045;-73
2022/10/07 10:31:55;;;;;;;33.67;13.30;;;;;;;13.20;86.06;101260.44;4973220;28;20043;-74
2022/10/07 10:34:29;;;;;;;22.07;6.33;;;;;;;13.33;86.66;101245.56;4955814;28;20426;-74
2022/10/07 10:37:05;;;;;;;23.23;4.97;;;;;;;13.54;84.27;101258.38;4955950;28;20129;-73
2022/10/07 10:39:43;;;;;;;18.00;5.80;;;;;;;13.44;84.02;101249.72;4955684;28;20027;-73
2022/10/07 10:42:14;;;;;;;15.73;4.88;;;;;;;13.32;84.63;101246.56;4973329;28;20039;-71
2022/10/07 10:45:02;;;;;;;18.60;6.37;;;;;;;13.45;85.64;101253.22;4973129;28;20038;-74
2022/10/07 10:48:05;;;;;;;33.90;15.23;;;;;;;13.56;83.88;101276.94;4973036;28;20181;-73
2022/10/07 10:50:43;;;;;;;22.20;9.63;;;;;;;13.52;83.58;101272.94;4973245;28;20466;-76
2022/10/07 10:53:17;;;;;;;34.43;16.40;;;;;;;13.56;83.96;101267.06;4972978;28;20094;-72
2022/10/07 10:56:34;;;;;;;20.77;5.60;;;;;;;13.54;83.49;101278.94;4972221;28;20117;-71
2022/10/07 10:59:26;;;;;;;19.40;4.77;;;;;;;13.58;85.09;101277.59;4894891;29;20044;-74
2022/10/07 11:02:21;;;;;;;13.00;4.93;;;;;;;13.54;83.98;101282.47;4970872;28;20432;-76
2022/10/07 11:04:54;;;;;;;18.73;6.47;;;;;;;13.45;84.90;101296.03;4967327;28;20031;-76
2022/10/07 11:07:34;;;;;;;17.10;4.07;;;;;;;13.24;84.80;101262.59;4965756;28;20039;-74
2022/10/07 11:10:36;;;;;;;13.00;4.43;;;;;;;13.32;85.36;101276.00;4956642;29;20034;-79
2022/10/07 11:13:17;;;;;;;18.40;4.33;;;;;;;13.29;84.90;101262.91;4957149;29;20031;-74
2022/10/07 11:15:52;;;;;;;16.43;4.10;;;;;;;13.28;85.20;101273.78;4978278;29;20022;-75
2022/10/07 11:18:46;;;;;;;16.83;4.80;;;;;;;13.33;84.78;101283.00;4960949;29;20030;-72
2022/10/07 11:21:30;;;;;;;25.50;7.15;;;;;;;13.32;84.97;101275.16;4967769;29;20517;-73
2022/10/07 11:24:00;;;;;;;12.93;4.20;;;;;;;13.28;85.37;101279.97;4963212;29;20501;-74
2022/10/07 11:26:42;;;;;;;15.40;4.87;;;;;;;13.25;84.38;101264.25;4958604;29;20027;-79
2022/10/07 11:29:23;;;;;;;16.13;4.90;;;;;;;13.25;85.89;101263.44;4957846;29;20034;-71
2022/10/07 11:32:01;;;;;;;58.70;11.20;;;;;;;13.34;85.01;101265.13;4957377;29;20038;-72
2022/10/07 11:34:55;;;;;;;9.65;3.72;;;;;;;13.43;84.19;101272.13;4957239;29;20023;-77
2022/10/07 11:37:35;;;;;;;13.23;4.00;;;;;;;13.36;83.65;101267.63;4924164;29;20443;-73
2022/10/07 11:40:05;;;;;;;12.60;4.37;;;;;;;13.22;84.35;101261.94;4957486;29;20031;-72
2022/10/07 11:42:39;;;;;;;21.60;4.93;;;;;;;13.11;85.66;101267.59;4956978;29;20031;-72
2022/10/07 11:45:38;;;;;;;10.03;3.87;;;;;;;13.06;86.46;101274.44;4956908;29;20027;-73